PWSweather.com
Personal Weather Stations
Station Observations
IONTARIO88
Lincoln, ON L0R

Lincoln, ON L0R

Lat: 43.1763563, Lon: -79.4719525

Elevation: 297

Station Type: Davis Vantage Pro 2 Plus

http://www.beamsvillewx.ca

Latest ConditionsUpdated 4:00:01 PM EDT Wednesday, Jul 23, 2014
Currently Today's Max Today's Min Today's Average
Temperature 71.6°F22.0°C 77.8°F25.4°C 69.0°F20.6°C 74.2°F23.4°C
Dew Point 59.6°F15.3°C 70.5°F21.4°C 59.6°F15.3°C 66.7°F19.3°C
Winds 4.1 mph NE6.6 kmh NE 7.3 mph NW11.7 kmh NW - 3.9 mph 6.3 kmh
Wind Gusts 8.0 mph12.9 kmh 17.0 mph27.4 kmh - -
Humidity 66% 88% 61% 78%
Pressure 29.93 in1013.5 mb 29.93 in1013.5 mb 29.81 in1009.5 mb -
Precipitation - 0.02 in0.5 mm - -
Hour Temp Dew Point Humidity Winds Wind Gusts Pressure Precip Precip Rate Daily Precip Total
04:00 PM 71.6°F22.0°C 59.6°F15.3°C 66% 4.1 mph NE6.6 kmh NE 8.0 mph12.9 kmh 29.93 in1013.5 mb 0.00 in0.0 mm 0.00 in/hr0.0 mm/hr 0.02 in0.5 mm
03:50 PM 71.8°F22.1°C 59.8°F15.4°C 66% 6.1 mph N9.8 kmh N 10.0 mph16.1 kmh 29.92 in1013.2 mb 0.00 in0.0 mm 0.00 in/hr0.0 mm/hr 0.02 in0.5 mm
03:40 PM 72.4°F22.4°C 60.8°F16.0°C 67% 2.5 mph NNE4.0 kmh NNE 8.0 mph12.9 kmh 29.92 in1013.2 mb 0.00 in0.0 mm 0.00 in/hr0.0 mm/hr 0.02 in0.5 mm
03:30 PM 72.1°F22.3°C 60.1°F15.6°C 66% 6.3 mph NNW10.1 kmh NNW 11.0 mph17.7 kmh 29.92 in1013.2 mb 0.00 in0.0 mm 0.00 in/hr0.0 mm/hr 0.02 in0.5 mm
03:20 PM 72.2°F22.3°C 61.0°F16.1°C 68% 5.4 mph N8.7 kmh N 11.0 mph17.7 kmh 29.92 in1013.2 mb 0.00 in0.0 mm 0.00 in/hr0.0 mm/hr 0.02 in0.5 mm
03:10 PM 72.5°F22.5°C 60.5°F15.8°C 66% 2.8 mph NNE4.5 kmh NNE 8.0 mph12.9 kmh 29.92 in1013.2 mb 0.00 in0.0 mm 0.00 in/hr0.0 mm/hr 0.02 in0.5 mm
03:00 PM 73.6°F23.1°C 61.5°F16.4°C 66% 6.8 mph NE10.9 kmh NE 10.0 mph16.1 kmh 29.92 in1013.2 mb 0.00 in0.0 mm 0.00 in/hr0.0 mm/hr 0.02 in0.5 mm
02:50 PM 74.0°F23.3°C 61.9°F16.6°C 66% 2.6 mph N4.2 kmh N 6.0 mph9.7 kmh 29.92 in1013.2 mb 0.00 in0.0 mm 0.00 in/hr0.0 mm/hr 0.02 in0.5 mm
02:40 PM 74.6°F23.7°C 62.9°F17.2°C 67% 7.3 mph NW11.7 kmh NW 12.0 mph19.3 kmh 29.92 in1013.2 mb 0.00 in0.0 mm 0.00 in/hr0.0 mm/hr 0.02 in0.5 mm
02:30 PM 74.9°F23.8°C 62.8°F17.1°C 66% 3.9 mph N6.3 kmh N 7.0 mph11.3 kmh 29.92 in1013.2 mb 0.00 in0.0 mm 0.00 in/hr0.0 mm/hr 0.02 in0.5 mm
02:20 PM 76.5°F24.7°C 62.1°F16.7°C 61% 6.9 mph N11.1 kmh N 11.0 mph17.7 kmh 29.91 in1012.9 mb 0.00 in0.0 mm 0.00 in/hr0.0 mm/hr 0.02 in0.5 mm
02:10 PM 75.7°F24.3°C 63.9°F17.7°C 67% 5.3 mph WNW8.5 kmh WNW 9.0 mph14.5 kmh 29.91 in1012.9 mb 0.00 in0.0 mm 0.00 in/hr0.0 mm/hr 0.02 in0.5 mm
02:00 PM 74.7°F23.7°C 63.0°F17.2°C 67% 6.4 mph N10.3 kmh N 8.0 mph12.9 kmh 29.91 in1012.9 mb 0.00 in0.0 mm 0.00 in/hr0.0 mm/hr 0.02 in0.5 mm
01:50 PM 74.5°F23.6°C 62.8°F17.1°C 67% 3.9 mph N6.3 kmh N 8.0 mph12.9 kmh 29.91 in1012.9 mb 0.00 in0.0 mm 0.00 in/hr0.0 mm/hr 0.02 in0.5 mm
01:40 PM 74.1°F23.4°C 63.7°F17.6°C 70% 4.5 mph N7.2 kmh N 9.0 mph14.5 kmh 29.91 in1012.9 mb 0.00 in0.0 mm 0.00 in/hr0.0 mm/hr 0.02 in0.5 mm
01:30 PM 72.9°F22.7°C 62.9°F17.2°C 71% 0.9 mph N1.4 kmh N 4.0 mph6.4 kmh 29.91 in1012.9 mb 0.00 in0.0 mm 0.00 in/hr0.0 mm/hr 0.02 in0.5 mm
01:20 PM 72.1°F22.3°C 62.6°F17.0°C 72% 5.9 mph N9.5 kmh N 8.0 mph12.9 kmh 29.90 in1012.5 mb 0.00 in0.0 mm 0.00 in/hr0.0 mm/hr 0.02 in0.5 mm
01:10 PM 71.0°F21.7°C 62.7°F17.1°C 75% 4.0 mph N6.4 kmh N 5.0 mph8.0 kmh 29.91 in1012.9 mb 0.00 in0.0 mm 0.00 in/hr0.0 mm/hr 0.02 in0.5 mm
01:00 PM 69.9°F21.1°C 62.0°F16.7°C 76% 4.8 mph N7.7 kmh N 8.0 mph12.9 kmh 29.91 in1012.9 mb 0.00 in0.0 mm 0.00 in/hr0.0 mm/hr 0.02 in0.5 mm
12:50 PM 69.4°F20.8°C 61.9°F16.6°C 77% 3.4 mph N5.5 kmh N 6.0 mph9.7 kmh 29.90 in1012.5 mb 0.00 in0.0 mm 0.00 in/hr0.0 mm/hr 0.02 in0.5 mm
12:40 PM 69.0°F20.6°C 62.2°F16.8°C 79% 3.4 mph N5.5 kmh N 7.0 mph11.3 kmh 29.90 in1012.5 mb 0.00 in0.0 mm 0.00 in/hr0.0 mm/hr 0.02 in0.5 mm
12:30 PM 69.0°F20.6°C 62.9°F17.2°C 81% 3.8 mph N6.1 kmh N 10.0 mph16.1 kmh 29.90 in1012.5 mb 0.00 in0.0 mm 0.00 in/hr0.0 mm/hr 0.02 in0.5 mm
12:20 PM 69.5°F20.8°C 62.7°F17.1°C 79% 6.9 mph N11.1 kmh N 13.0 mph20.9 kmh 29.90 in1012.5 mb 0.00 in0.0 mm 0.00 in/hr0.0 mm/hr 0.02 in0.5 mm
12:10 PM 70.2°F21.2°C 62.6°F17.0°C 77% 7.0 mph N11.3 kmh N 11.0 mph17.7 kmh 29.89 in1012.2 mb 0.00 in0.0 mm 0.00 in/hr0.0 mm/hr 0.02 in0.5 mm
12:00 PM 70.2°F21.2°C 62.6°F17.0°C 77% 6.6 mph N10.6 kmh N 7.0 mph11.3 kmh 29.89 in1012.2 mb 0.00 in0.0 mm 0.00 in/hr0.0 mm/hr 0.02 in0.5 mm
11:50 AM 69.9°F21.1°C 62.7°F17.1°C 78% 1.5 mph NNE2.4 kmh NNE 4.0 mph6.4 kmh 29.89 in1012.2 mb 0.00 in0.0 mm 0.00 in/hr0.0 mm/hr 0.02 in0.5 mm
11:40 AM 69.9°F21.1°C 63.1°F17.3°C 79% 2.1 mph N3.4 kmh N 6.0 mph9.7 kmh 29.89 in1012.2 mb 0.00 in0.0 mm 0.00 in/hr0.0 mm/hr 0.02 in0.5 mm
11:30 AM 70.1°F21.2°C 62.9°F17.2°C 78% 0.8 mph N1.3 kmh N 5.0 mph8.0 kmh 29.89 in1012.2 mb 0.00 in0.0 mm 0.00 in/hr0.0 mm/hr 0.02 in0.5 mm
11:20 AM 70.6°F21.4°C 63.0°F17.2°C 77% 5.1 mph N8.2 kmh N 6.0 mph9.7 kmh 29.89 in1012.2 mb 0.00 in0.0 mm 0.00 in/hr0.0 mm/hr 0.02 in0.5 mm
11:10 AM 70.3°F21.3°C 63.5°F17.5°C 79% 3.6 mph NNW5.8 kmh NNW 7.0 mph11.3 kmh 29.89 in1012.2 mb 0.00 in0.0 mm 0.00 in/hr0.0 mm/hr 0.02 in0.5 mm
11:00 AM 69.7°F20.9°C 63.6°F17.6°C 81% 2.7 mph N4.3 kmh N 6.0 mph9.7 kmh 29.89 in1012.2 mb 0.00 in0.0 mm 0.00 in/hr0.0 mm/hr 0.02 in0.5 mm
10:50 AM 70.1°F21.2°C 64.0°F17.8°C 81% 0.8 mph N1.3 kmh N 4.0 mph6.4 kmh 29.89 in1012.2 mb 0.00 in0.0 mm 0.00 in/hr0.0 mm/hr 0.02 in0.5 mm
10:40 AM 69.6°F20.9°C 63.9°F17.7°C 82% 1.5 mph NW2.4 kmh NW 5.0 mph8.0 kmh 29.88 in1011.9 mb 0.00 in0.0 mm 0.00 in/hr0.0 mm/hr 0.02 in0.5 mm
10:30 AM 69.6°F20.9°C 63.8°F17.7°C 82% 2.2 mph N3.5 kmh N 6.0 mph9.7 kmh 29.88 in1011.9 mb 0.00 in0.0 mm 0.00 in/hr0.0 mm/hr 0.02 in0.5 mm
10:20 AM 69.5°F20.8°C 64.1°F17.8°C 83% 4.1 mph NNW6.6 kmh NNW 5.0 mph8.0 kmh 29.87 in1011.5 mb 0.00 in0.0 mm 0.00 in/hr0.0 mm/hr 0.02 in0.5 mm
10:10 AM 69.8°F21.0°C 64.4°F18.0°C 83% 5.5 mph N8.9 kmh N 12.0 mph19.3 kmh 29.87 in1011.5 mb 0.00 in0.0 mm 0.00 in/hr0.0 mm/hr 0.02 in0.5 mm
10:00 AM 70.3°F21.3°C 64.9°F18.3°C 83% 2.6 mph NW4.2 kmh NW 7.0 mph11.3 kmh 29.87 in1011.5 mb 0.00 in0.0 mm 0.00 in/hr0.0 mm/hr 0.02 in0.5 mm
09:50 AM 71.1°F21.7°C 65.3°F18.5°C 82% 5.1 mph N8.2 kmh N 7.0 mph11.3 kmh 29.86 in1011.2 mb 0.00 in0.0 mm 0.00 in/hr0.0 mm/hr 0.02 in0.5 mm
09:40 AM 71.9°F22.2°C 66.1°F18.9°C 82% 2.2 mph WNW3.5 kmh WNW 5.0 mph8.0 kmh 29.86 in1011.2 mb 0.00 in0.0 mm 0.00 in/hr0.0 mm/hr 0.02 in0.5 mm
09:30 AM 73.2°F22.9°C 67.1°F19.5°C 81% 6.1 mph NNW9.8 kmh NNW 10.0 mph16.1 kmh 29.86 in1011.2 mb 0.00 in0.0 mm 0.00 in/hr0.0 mm/hr 0.02 in0.5 mm
09:20 AM 74.4°F23.6°C 68.5°F20.3°C 82% 1.8 mph NW2.9 kmh NW 4.0 mph6.4 kmh 29.85 in1010.8 mb 0.00 in0.0 mm 0.00 in/hr0.0 mm/hr 0.02 in0.5 mm
09:10 AM 75.0°F23.9°C 69.8°F21.0°C 84% 0.5 mph NW0.8 kmh NW 4.0 mph6.4 kmh 29.86 in1011.2 mb 0.00 in0.0 mm 0.00 in/hr0.0 mm/hr 0.02 in0.5 mm
09:00 AM 75.0°F23.9°C 70.2°F21.2°C 85% 0.3 mph WNW0.5 kmh WNW -- 29.86 in1011.2 mb 0.00 in0.0 mm 0.00 in/hr0.0 mm/hr 0.02 in0.5 mm
08:50 AM 74.9°F23.8°C 70.1°F21.2°C 85% Calm Calm -- 29.85 in1010.8 mb 0.00 in0.0 mm 0.00 in/hr0.0 mm/hr 0.02 in0.5 mm
08:40 AM 74.9°F23.8°C 69.8°F21.0°C 84% 0.1 mph WNW0.2 kmh WNW 1.0 mph1.6 kmh 29.84 in1010.5 mb 0.00 in0.0 mm 0.00 in/hr0.0 mm/hr 0.02 in0.5 mm
08:30 AM 74.9°F23.8°C 69.7°F20.9°C 84% Calm Calm -- 29.84 in1010.5 mb 0.00 in0.0 mm 0.00 in/hr0.0 mm/hr 0.02 in0.5 mm
08:20 AM 75.1°F23.9°C 69.6°F20.9°C 83% 0.2 mph NW0.3 kmh NW 1.0 mph1.6 kmh 29.84 in1010.5 mb 0.00 in0.0 mm 0.00 in/hr0.0 mm/hr 0.02 in0.5 mm
08:10 AM 75.4°F24.1°C 70.2°F21.2°C 84% 0.7 mph W1.1 kmh W 2.0 mph3.2 kmh 29.83 in1010.2 mb 0.00 in0.0 mm 0.00 in/hr0.0 mm/hr 0.02 in0.5 mm
08:00 AM 75.3°F24.1°C 70.1°F21.2°C 84% 3.4 mph WNW5.5 kmh WNW 5.0 mph8.0 kmh 29.83 in1010.2 mb 0.00 in0.0 mm 0.00 in/hr0.0 mm/hr 0.02 in0.5 mm
07:50 AM 75.2°F24.0°C 70.3°F21.3°C 85% 3.4 mph W5.5 kmh W 5.0 mph8.0 kmh 29.82 in1009.8 mb 0.00 in0.0 mm 0.00 in/hr0.0 mm/hr 0.02 in0.5 mm
07:40 AM 75.0°F23.9°C 70.2°F21.2°C 85% 2.9 mph WNW4.7 kmh WNW 9.0 mph14.5 kmh 29.83 in1010.2 mb 0.00 in0.0 mm 0.00 in/hr0.0 mm/hr 0.02 in0.5 mm
07:30 AM 75.1°F23.9°C 69.9°F21.1°C 84% 5.6 mph WSW9.0 kmh WSW 8.0 mph12.9 kmh 29.83 in1010.2 mb 0.00 in0.0 mm 0.00 in/hr0.0 mm/hr 0.02 in0.5 mm
07:20 AM 74.9°F23.8°C 70.4°F21.3°C 86% 6.3 mph SW10.1 kmh SW 8.0 mph12.9 kmh 29.83 in1010.2 mb 0.00 in0.0 mm 0.00 in/hr0.0 mm/hr 0.02 in0.5 mm
07:10 AM 74.8°F23.8°C 70.3°F21.3°C 86% 4.6 mph W7.4 kmh W 7.0 mph11.3 kmh 29.82 in1009.8 mb 0.00 in0.0 mm 0.00 in/hr0.0 mm/hr 0.02 in0.5 mm
07:00 AM 74.7°F23.7°C 70.2°F21.2°C 86% 2.0 mph WSW3.2 kmh WSW 9.0 mph14.5 kmh 29.82 in1009.8 mb 0.00 in0.0 mm 0.00 in/hr0.0 mm/hr 0.02 in0.5 mm
06:50 AM 74.6°F23.7°C 70.5°F21.4°C 87% 4.1 mph SW6.6 kmh SW 7.0 mph11.3 kmh 29.82 in1009.8 mb 0.00 in0.0 mm 0.00 in/hr0.0 mm/hr 0.02 in0.5 mm
06:40 AM 74.5°F23.6°C 70.4°F21.3°C 87% 2.3 mph WSW3.7 kmh WSW 9.0 mph14.5 kmh 29.82 in1009.8 mb 0.00 in0.0 mm 0.00 in/hr0.0 mm/hr 0.02 in0.5 mm
06:30 AM 74.4°F23.6°C 70.3°F21.3°C 87% 2.6 mph WSW4.2 kmh WSW 8.0 mph12.9 kmh 29.82 in1009.8 mb 0.00 in0.0 mm 0.00 in/hr0.0 mm/hr 0.02 in0.5 mm
06:20 AM 74.2°F23.4°C 70.1°F21.2°C 87% 4.4 mph SW7.1 kmh SW 8.0 mph12.9 kmh 29.82 in1009.8 mb 0.00 in0.0 mm 0.00 in/hr0.0 mm/hr 0.02 in0.5 mm
06:10 AM 74.3°F23.5°C 70.2°F21.2°C 87% 1.8 mph SW2.9 kmh SW 7.0 mph11.3 kmh 29.82 in1009.8 mb 0.00 in0.0 mm 0.00 in/hr0.0 mm/hr 0.02 in0.5 mm
06:00 AM 74.2°F23.4°C 70.4°F21.3°C 88% 2.6 mph SW4.2 kmh SW 6.0 mph9.7 kmh 29.82 in1009.8 mb 0.00 in0.0 mm 0.00 in/hr0.0 mm/hr 0.02 in0.5 mm
05:50 AM 74.2°F23.4°C 70.1°F21.2°C 87% 3.4 mph SSW5.5 kmh SSW 9.0 mph14.5 kmh 29.83 in1010.2 mb 0.00 in0.0 mm 0.00 in/hr0.0 mm/hr 0.02 in0.5 mm
05:40 AM 74.1°F23.4°C 70.0°F21.1°C 87% 2.9 mph WSW4.7 kmh WSW 6.0 mph9.7 kmh 29.83 in1010.2 mb 0.00 in0.0 mm 0.00 in/hr0.0 mm/hr 0.02 in0.5 mm
05:30 AM 74.1°F23.4°C 70.0°F21.1°C 87% 5.4 mph WSW8.7 kmh WSW 10.0 mph16.1 kmh 29.83 in1010.2 mb 0.00 in0.0 mm 0.00 in/hr0.0 mm/hr 0.02 in0.5 mm
05:20 AM 74.3°F23.5°C 70.2°F21.2°C 87% 6.5 mph SW10.5 kmh SW 14.0 mph22.5 kmh 29.83 in1010.2 mb 0.01 in0.3 mm 0.06 in/hr1.5 mm/hr 0.02 in0.5 mm
05:10 AM 74.6°F23.7°C 70.1°F21.2°C 86% 3.9 mph SW6.3 kmh SW 8.0 mph12.9 kmh 29.83 in1010.2 mb 0.00 in0.0 mm 0.00 in/hr0.0 mm/hr 0.01 in0.3 mm
05:00 AM 75.1°F23.9°C 70.3°F21.3°C 85% 7.1 mph SW11.4 kmh SW 10.0 mph16.1 kmh 29.83 in1010.2 mb 0.01 in0.3 mm 0.01 in/hr0.3 mm/hr 0.01 in0.3 mm
04:50 AM 75.8°F24.3°C 70.3°F21.3°C 83% 5.9 mph SSW9.5 kmh SSW 9.0 mph14.5 kmh 29.81 in1009.5 mb 0.00 in0.0 mm 0.00 in/hr0.0 mm/hr 0.00 in0.0 mm
04:40 AM 76.4°F24.7°C 70.1°F21.2°C 81% 3.9 mph SW6.3 kmh SW 9.0 mph14.5 kmh 29.81 in1009.5 mb 0.00 in0.0 mm 0.00 in/hr0.0 mm/hr 0.00 in0.0 mm
04:30 AM 76.9°F24.9°C 69.9°F21.1°C 79% 4.8 mph SW7.7 kmh SW 9.0 mph14.5 kmh 29.81 in1009.5 mb 0.00 in0.0 mm 0.00 in/hr0.0 mm/hr 0.00 in0.0 mm
04:20 AM 77.3°F25.2°C 69.5°F20.8°C 77% 1.9 mph SW3.1 kmh SW 4.0 mph6.4 kmh 29.81 in1009.5 mb 0.00 in0.0 mm 0.00 in/hr0.0 mm/hr 0.00 in0.0 mm
04:10 AM 77.5°F25.3°C 69.7°F20.9°C 77% 6.4 mph SW10.3 kmh SW 10.0 mph16.1 kmh 29.82 in1009.8 mb 0.00 in0.0 mm 0.00 in/hr0.0 mm/hr 0.00 in0.0 mm
04:00 AM 77.5°F25.3°C 69.3°F20.7°C 76% 6.5 mph SW10.5 kmh SW 17.0 mph27.4 kmh 29.82 in1009.8 mb 0.00 in0.0 mm 0.00 in/hr0.0 mm/hr 0.00 in0.0 mm
03:50 AM 77.5°F25.3°C 69.7°F20.9°C 77% 4.9 mph W7.9 kmh W 11.0 mph17.7 kmh 29.83 in1010.2 mb 0.00 in0.0 mm 0.00 in/hr0.0 mm/hr 0.00 in0.0 mm
03:40 AM 77.6°F25.3°C 69.4°F20.8°C 76% 3.5 mph SW5.6 kmh SW 6.0 mph9.7 kmh 29.81 in1009.5 mb 0.00 in0.0 mm 0.00 in/hr0.0 mm/hr 0.00 in0.0 mm
03:30 AM 77.7°F25.4°C 69.1°F20.6°C 75% 4.0 mph SSW6.4 kmh SSW 10.0 mph16.1 kmh 29.81 in1009.5 mb 0.00 in0.0 mm 0.00 in/hr0.0 mm/hr 0.00 in0.0 mm
03:20 AM 77.6°F25.3°C 69.0°F20.6°C 75% 4.8 mph S7.7 kmh S 15.0 mph24.1 kmh 29.82 in1009.8 mb 0.00 in0.0 mm 0.00 in/hr0.0 mm/hr 0.00 in0.0 mm
03:10 AM 77.4°F25.2°C 68.9°F20.5°C 75% 3.5 mph SW5.6 kmh SW 8.0 mph12.9 kmh 29.84 in1010.5 mb 0.00 in0.0 mm 0.00 in/hr0.0 mm/hr 0.00 in0.0 mm
03:00 AM 77.3°F25.2°C 68.4°F20.2°C 74% 4.5 mph SW7.2 kmh SW 12.0 mph19.3 kmh 29.84 in1010.5 mb 0.00 in0.0 mm 0.00 in/hr0.0 mm/hr 0.00 in0.0 mm
02:50 AM 77.4°F25.2°C 68.5°F20.3°C 74% 4.0 mph SSW6.4 kmh SSW 10.0 mph16.1 kmh 29.84 in1010.5 mb 0.00 in0.0 mm 0.00 in/hr0.0 mm/hr 0.00 in0.0 mm
02:40 AM 77.4°F25.2°C 68.5°F20.3°C 74% 7.3 mph SW11.7 kmh SW 11.0 mph17.7 kmh 29.84 in1010.5 mb 0.00 in0.0 mm 0.00 in/hr0.0 mm/hr 0.00 in0.0 mm
02:30 AM 77.5°F25.3°C 68.2°F20.1°C 73% 7.0 mph SW11.3 kmh SW 12.0 mph19.3 kmh 29.84 in1010.5 mb 0.00 in0.0 mm 0.00 in/hr0.0 mm/hr 0.00 in0.0 mm
02:20 AM 77.7°F25.4°C 68.3°F20.2°C 73% 3.1 mph SW5.0 kmh SW 6.0 mph9.7 kmh 29.84 in1010.5 mb 0.00 in0.0 mm 0.00 in/hr0.0 mm/hr 0.00 in0.0 mm
02:10 AM 77.8°F25.4°C 68.0°F20.0°C 72% 6.2 mph SSW10.0 kmh SSW 9.0 mph14.5 kmh 29.85 in1010.8 mb 0.00 in0.0 mm 0.00 in/hr0.0 mm/hr 0.00 in0.0 mm
02:00 AM 77.7°F25.4°C 68.0°F20.0°C 72% 6.7 mph SSW10.8 kmh SSW 12.0 mph19.3 kmh 29.85 in1010.8 mb 0.00 in0.0 mm 0.00 in/hr0.0 mm/hr 0.00 in0.0 mm
01:50 AM 77.7°F25.4°C 68.0°F20.0°C 72% 6.3 mph SSW10.1 kmh SSW 10.0 mph16.1 kmh 29.86 in1011.2 mb 0.00 in0.0 mm 0.00 in/hr0.0 mm/hr 0.00 in0.0 mm
01:40 AM 77.4°F25.2°C 68.1°F20.1°C 73% 6.8 mph WSW10.9 kmh WSW 8.0 mph12.9 kmh 29.87 in1011.5 mb 0.00 in0.0 mm 0.00 in/hr0.0 mm/hr 0.00 in0.0 mm
01:30 AM 77.4°F25.2°C 68.1°F20.1°C 73% 5.6 mph SSW9.0 kmh SSW 9.0 mph14.5 kmh 29.87 in1011.5 mb 0.00 in0.0 mm 0.00 in/hr0.0 mm/hr 0.00 in0.0 mm
01:20 AM 77.2°F25.1°C 68.3°F20.2°C 74% 5.0 mph S8.0 kmh S 11.0 mph17.7 kmh 29.88 in1011.9 mb 0.00 in0.0 mm 0.00 in/hr0.0 mm/hr 0.00 in0.0 mm
01:10 AM 77.1°F25.1°C 68.2°F20.1°C 74% 4.1 mph SW6.6 kmh SW 10.0 mph16.1 kmh 29.88 in1011.9 mb 0.00 in0.0 mm 0.00 in/hr0.0 mm/hr 0.00 in0.0 mm
01:00 AM 77.0°F25.0°C 68.0°F20.0°C 74% 3.1 mph SW5.0 kmh SW 6.0 mph9.7 kmh 29.88 in1011.9 mb 0.00 in0.0 mm 0.00 in/hr0.0 mm/hr 0.00 in0.0 mm
12:50 AM 76.9°F24.9°C 68.0°F20.0°C 74% 2.3 mph SSW3.7 kmh SSW 8.0 mph12.9 kmh 29.89 in1012.2 mb 0.00 in0.0 mm 0.00 in/hr0.0 mm/hr 0.00 in0.0 mm
12:40 AM 76.8°F24.9°C 68.3°F20.2°C 75% 4.4 mph SW7.1 kmh SW 7.0 mph11.3 kmh 29.89 in1012.2 mb 0.00 in0.0 mm 0.00 in/hr0.0 mm/hr 0.00 in0.0 mm
12:30 AM 76.8°F24.9°C 68.3°F20.2°C 75% 0.9 mph SW1.4 kmh SW 6.0 mph9.7 kmh 29.89 in1012.2 mb 0.00 in0.0 mm 0.00 in/hr0.0 mm/hr 0.00 in0.0 mm
12:20 AM 76.8°F24.9°C 68.3°F20.2°C 75% 0.5 mph SW0.8 kmh SW 2.0 mph3.2 kmh 29.89 in1012.2 mb 0.00 in0.0 mm 0.00 in/hr0.0 mm/hr 0.00 in0.0 mm
12:10 AM 76.9°F24.9°C 68.4°F20.2°C 75% 1.1 mph SSW1.8 kmh SSW 4.0 mph6.4 kmh 29.89 in1012.2 mb 0.00 in0.0 mm 0.00 in/hr0.0 mm/hr 0.00 in0.0 mm
12:00 AM 76.8°F24.9°C 68.3°F20.2°C 75% 4.3 mph SW6.9 kmh SW 4.0 mph6.4 kmh 29.89 in1012.2 mb 0.00 in0.0 mm 0.00 in/hr0.0 mm/hr 0.00 in0.0 mm